Time;durP1;ratioP1;P1;durP2;ratioP2;P2;SDS_P1;SDS_P2;PMS_P1;PMS_P2;Temp;Humidity;BMP_temperature;BMP_pressure;BME280_temperature;BME280_humidity;BME280_pressure;Samples;Min_cycle;Max_cycle;Signal;HPM_P1;HPM_P2
2023/04/14 00:00:37;;;;;;;7.93;2.00;;;4.80;99.90;;;;;;4966214;28;20051;-73
2023/04/14 00:03:03;;;;;;;6.90;2.30;;;4.70;99.90;;;;;;4977778;28;20050;-73
2023/04/14 00:05:29;;;;;;;6.57;2.20;;;4.70;99.90;;;;;;4966323;28;20039;-72
2023/04/14 00:07:56;;;;;;;6.05;1.70;;;4.60;99.90;;;;;;4960768;28;20122;-72
2023/04/14 00:10:22;;;;;;;7.30;2.00;;;4.60;99.90;;;;;;4962061;28;20611;-73
2023/04/14 00:12:48;;;;;;;4.13;1.33;;;4.50;99.90;;;;;;4964644;28;20054;-73
2023/04/14 00:15:14;;;;;;;7.03;2.05;;;4.50;99.90;;;;;;4963498;28;20511;-73
2023/04/14 00:17:39;;;;;;;7.40;1.65;;;4.50;99.90;;;;;;4966300;28;20050;-73
2023/04/14 00:20:07;;;;;;;6.50;2.15;;;4.50;99.90;;;;;;4964883;28;20047;-71
2023/04/14 00:22:33;;;;;;;5.47;1.98;;;4.50;99.90;;;;;;4963573;28;20569;-71
2023/04/14 00:25:00;;;;;;;5.78;1.60;;;4.40;99.90;;;;;;4948684;28;20035;-72
2023/04/14 00:27:26;;;;;;;7.38;1.67;;;4.40;99.90;;;;;;4968677;28;20113;-71
2023/04/14 00:29:51;;;;;;;10.10;2.15;;;4.40;99.90;;;;;;4962714;28;20046;-72
2023/04/14 00:32:18;;;;;;;5.75;1.85;;;4.30;99.90;;;;;;4947458;28;20039;-72
2023/04/14 00:34:43;;;;;;;5.40;1.50;;;4.20;99.90;;;;;;4963136;28;20122;-71
2023/04/14 00:37:09;;;;;;;6.65;2.03;;;4.20;99.90;;;;;;4958436;28;20384;-72
2023/04/14 00:39:35;;;;;;;6.65;1.98;;;4.10;99.90;;;;;;4967086;28;20247;-71
2023/04/14 00:42:01;;;;;;;6.88;1.90;;;4.10;99.90;;;;;;4960280;28;20038;-71
2023/04/14 00:44:27;;;;;;;7.18;1.77;;;4.10;99.90;;;;;;4963373;28;20043;-72
2023/04/14 00:46:53;;;;;;;5.93;1.63;;;4.10;99.90;;;;;;4959167;28;20043;-72
2023/04/14 00:49:19;;;;;;;4.57;1.58;;;4.00;99.90;;;;;;4947463;28;20043;-72
2023/04/14 00:51:46;;;;;;;4.10;1.40;;;3.90;99.90;;;;;;4959950;28;20047;-72
2023/04/14 00:54:16;;;;;;;5.38;1.77;;;4.00;99.90;;;;;;4956863;28;20043;-71
2023/04/14 00:56:42;;;;;;;4.63;1.73;;;3.90;99.90;;;;;;4965831;28;20050;-71
2023/04/14 00:59:08;;;;;;;3.85;1.65;;;3.90;99.90;;;;;;4963593;28;20047;-72
2023/04/14 01:01:37;;;;;;;6.53;1.98;;;3.90;99.90;;;;;;4964523;28;20450;-72
2023/04/14 01:04:03;;;;;;;5.00;1.73;;;3.80;99.90;;;;;;4957066;28;20035;-71
2023/04/14 01:06:29;;;;;;;5.55;1.55;;;3.80;99.90;;;;;;4976292;28;20074;-71
2023/04/14 01:08:56;;;;;;;10.70;2.10;;;3.90;99.90;;;;;;4975913;28;20035;-71
2023/04/14 01:11:59;;;;;;;8.02;1.92;;;3.80;99.90;;;;;;4963034;28;20045;-71
2023/04/14 01:14:34;;;;;;;4.68;1.73;;;3.80;99.90;;;;;;4958601;28;20082;-71
2023/04/14 01:17:29;;;;;;;4.65;1.70;;;3.70;99.90;;;;;;4965133;28;20464;-72
2023/04/14 01:20:06;;;;;;;8.50;1.60;;;3.70;99.90;;;;;;4967361;28;20058;-72
2023/04/14 01:22:35;;;;;;;6.40;1.65;;;3.60;99.90;;;;;;4964239;28;20039;-71
2023/04/14 01:25:00;;;;;;;5.75;1.50;;;3.60;99.90;;;;;;4960647;28;20094;-71
2023/04/14 01:27:41;;;;;;;9.13;2.13;;;3.60;99.90;;;;;;4964934;28;20601;-71
2023/04/14 01:30:07;;;;;;;7.80;1.60;;;3.60;99.90;;;;;;4965088;28;20054;-71
2023/04/14 01:32:35;;;;;;;7.55;1.77;;;3.50;99.90;;;;;;4959741;28;20065;-71
2023/04/14 01:35:12;;;;;;;5.65;2.08;;;3.60;99.90;;;;;;4949669;28;20038;-71
2023/04/14 01:37:47;;;;;;;7.50;1.67;;;3.50;99.90;;;;;;4956462;28;20087;-71
2023/04/14 01:40:15;;;;;;;6.20;2.08;;;3.50;99.90;;;;;;4979088;28;20043;-72
2023/04/14 01:43:02;;;;;;;6.45;1.95;;;3.50;99.90;;;;;;4958541;28;20066;-72
2023/04/14 01:45:34;;;;;;;6.25;1.80;;;3.50;99.90;;;;;;4962183;28;20051;-72
2023/04/14 01:48:00;;;;;;;5.28;1.70;;;3.40;99.90;;;;;;4978686;28;20123;-72
2023/04/14 01:50:27;;;;;;;8.63;3.30;;;3.40;99.90;;;;;;4962168;28;20458;-72
2023/04/14 01:52:53;;;;;;;7.28;2.38;;;3.50;99.90;;;;;;4956088;28;20126;-72
2023/04/14 01:55:20;;;;;;;9.18;2.13;;;3.60;99.90;;;;;;4979285;28;20043;-72
2023/04/14 01:57:48;;;;;;;8.90;2.47;;;3.60;99.90;;;;;;4963323;28;20495;-72
2023/04/14 02:00:17;;;;;;;7.35;2.38;;;3.70;99.90;;;;;;4956365;28;20403;-72
2023/04/14 02:02:45;;;;;;;4.97;2.55;;;3.80;99.90;;;;;;4959290;28;20542;-72
2023/04/14 02:05:12;;;;;;;5.72;2.70;;;3.80;99.90;;;;;;4976871;28;20070;-72
2023/04/14 02:07:40;;;;;;;7.03;2.25;;;3.80;99.90;;;;;;4962289;28;20043;-72
2023/04/14 02:10:08;;;;;;;6.85;2.33;;;3.80;99.90;;;;;;4962037;28;20046;-72
2023/04/14 02:12:38;;;;;;;7.07;2.40;;;3.80;99.90;;;;;;4963923;28;20105;-72
2023/04/14 02:15:05;;;;;;;8.63;2.40;;;3.80;99.90;;;;;;4964638;28;20101;-72
2023/04/14 02:17:32;;;;;;;7.88;2.75;;;3.70;99.90;;;;;;4964772;28;20086;-72
2023/04/14 02:19:59;;;;;;;9.85;2.70;;;3.70;99.90;;;;;;4963624;28;20039;-71
2023/04/14 02:22:26;;;;;;;6.95;2.30;;;3.70;99.90;;;;;;4975285;28;20121;-71
2023/04/14 02:24:54;;;;;;;7.50;2.53;;;3.80;99.90;;;;;;4966022;28;20034;-71
2023/04/14 02:27:32;;;;;;;5.40;2.25;;;3.80;99.90;;;;;;4962593;28;20049;-71
2023/04/14 02:30:02;;;;;;;9.50;2.47;;;3.80;99.90;;;;;;4961822;28;20548;-71
2023/04/14 02:32:29;;;;;;;12.68;2.60;;;3.80;99.90;;;;;;4982642;28;20482;-71
2023/04/14 02:35:12;;;;;;;6.18;2.42;;;3.90;99.90;;;;;;4965138;28;20118;-71
2023/04/14 02:37:42;;;;;;;5.72;2.47;;;3.90;99.90;;;;;;4966327;28;20577;-72
2023/04/14 02:40:21;;;;;;;6.95;2.97;;;3.90;99.90;;;;;;4975949;28;20046;-72
2023/04/14 02:42:55;;;;;;;4.20;2.45;;;4.00;99.90;;;;;;4965572;28;20038;-71
2023/04/14 02:45:23;;;;;;;7.95;3.30;;;3.90;99.90;;;;;;4960447;28;20078;-72
2023/04/14 02:47:53;;;;;;;5.20;2.05;;;4.00;99.90;;;;;;4966189;28;20101;-72
2023/04/14 02:50:20;;;;;;;7.63;2.55;;;4.10;99.90;;;;;;4952102;28;20034;-72
2023/04/14 02:52:50;;;;;;;11.13;2.83;;;4.10;99.90;;;;;;4968311;28;20482;-71
2023/04/14 02:55:17;;;;;;;9.95;2.72;;;4.10;99.90;;;;;;4961131;28;20035;-71
2023/04/14 02:57:44;;;;;;;5.95;2.30;;;4.10;99.90;;;;;;4959741;28;20482;-71
2023/04/14 03:00:12;;;;;;;5.55;2.20;;;4.10;99.90;;;;;;4984459;28;20042;-71
2023/04/14 03:02:38;;;;;;;10.60;3.05;;;4.10;99.90;;;;;;4982099;28;20058;-71
2023/04/14 03:05:05;;;;;;;7.80;2.20;;;4.10;99.90;;;;;;4950471;28;20050;-72
2023/04/14 03:07:32;;;;;;;8.15;2.55;;;4.10;99.90;;;;;;4964510;28;20828;-71
2023/04/14 03:09:58;;;;;;;11.80;3.00;;;4.10;99.90;;;;;;4963077;28;20340;-71
2023/04/14 03:12:24;;;;;;;10.80;2.90;;;4.10;99.90;;;;;;4962674;28;20050;-71
2023/04/14 03:14:51;;;;;;;6.88;2.60;;;4.00;99.90;;;;;;4967600;28;20545;-71
2023/04/14 03:17:19;;;;;;;9.88;2.30;;;3.90;99.90;;;;;;4965962;28;20038;-71
2023/04/14 03:19:47;;;;;;;6.05;2.50;;;3.90;99.90;;;;;;4952249;28;20081;-71
2023/04/14 03:22:16;;;;;;;10.20;4.32;;;3.90;99.90;;;;;;4966446;28;20348;-71
2023/04/14 03:24:43;;;;;;;12.00;5.68;;;3.90;99.90;;;;;;4970335;28;20042;-71
2023/04/14 03:27:36;;;;;;;8.40;4.45;;;3.90;99.90;;;;;;4968164;28;20030;-71
2023/04/14 03:30:06;;;;;;;7.03;3.17;;;3.90;99.90;;;;;;4965448;28;20586;-71
2023/04/14 03:32:40;;;;;;;8.98;2.80;;;3.80;99.90;;;;;;4967661;28;20050;-71
2023/04/14 03:35:08;;;;;;;9.90;2.88;;;3.80;99.90;;;;;;4970840;28;20707;-71
2023/04/14 03:37:38;;;;;;;7.47;2.70;;;3.80;99.90;;;;;;4987160;28;20399;-71
2023/04/14 03:40:07;;;;;;;6.82;2.60;;;3.80;99.90;;;;;;4966785;28;20073;-71
2023/04/14 03:42:34;;;;;;;7.30;3.03;;;3.80;99.90;;;;;;4972992;28;20099;-71
2023/04/14 03:45:02;;;;;;;6.18;2.33;;;3.80;99.90;;;;;;4965167;28;20407;-72
2023/04/14 03:47:30;;;;;;;5.32;2.65;;;3.70;99.90;;;;;;4961007;28;20117;-71
2023/04/14 03:50:01;;;;;;;9.95;2.60;;;3.70;99.90;;;;;;4965012;28;20107;-71
2023/04/14 03:52:35;;;;;;;7.32;2.60;;;3.70;99.90;;;;;;4969956;28;20517;-71
2023/04/14 03:55:05;;;;;;;9.50;3.33;;;3.70;99.90;;;;;;4981216;28;20047;-71
2023/04/14 03:57:32;;;;;;;8.13;2.67;;;3.60;99.90;;;;;;4973813;28;20061;-71
2023/04/14 04:00:00;;;;;;;7.68;2.40;;;3.60;99.90;;;;;;4985306;28;20046;-72
2023/04/14 04:02:27;;;;;;;8.10;2.55;;;3.60;99.90;;;;;;4963460;28;20483;-71
2023/04/14 04:04:55;;;;;;;11.48;2.60;;;3.60;99.90;;;;;;4983279;28;20050;-71
2023/04/14 04:07:21;;;;;;;8.00;2.30;;;3.60;99.90;;;;;;4971744;28;20046;-71
2023/04/14 04:09:49;;;;;;;5.40;2.50;;;3.60;99.90;;;;;;4970439;28;20048;-71
2023/04/14 04:12:18;;;;;;;7.95;2.90;;;3.60;99.90;;;;;;4966079;28;20042;-71
2023/04/14 04:14:44;;;;;;;6.38;2.88;;;3.60;99.90;;;;;;4967663;28;20053;-71
2023/04/14 04:17:14;;;;;;;7.28;3.10;;;3.60;99.90;;;;;;4982144;28;20035;-71
2023/04/14 04:19:42;;;;;;;6.57;2.85;;;3.70;99.90;;;;;;4968746;28;20062;-71
2023/04/14 04:22:11;;;;;;;6.65;2.80;;;3.70;99.90;;;;;;4965224;28;20079;-72
2023/04/14 04:24:39;;;;;;;5.00;2.95;;;3.70;99.90;;;;;;4962436;28;20039;-71
2023/04/14 04:27:05;;;;;;;6.63;2.50;;;3.70;99.90;;;;;;4969812;28;20038;-72
2023/04/14 04:29:31;;;;;;;7.55;2.58;;;3.70;99.90;;;;;;4965820;28;20038;-71
2023/04/14 04:31:58;;;;;;;9.75;2.67;;;3.80;99.90;;;;;;4949589;28;20436;-71
2023/04/14 04:34:25;;;;;;;7.55;2.65;;;3.80;99.90;;;;;;4964362;28;20046;-71
2023/04/14 04:36:51;;;;;;;6.25;2.70;;;3.70;99.90;;;;;;4982027;28;20093;-71
2023/04/14 04:39:17;;;;;;;8.35;3.00;;;3.80;99.90;;;;;;4981429;28;20035;-71
2023/04/14 04:41:44;;;;;;;6.43;3.00;;;3.80;99.90;;;;;;4946059;28;20505;-71
2023/04/14 04:44:10;;;;;;;8.63;2.92;;;3.80;99.90;;;;;;4962670;28;20046;-71
2023/04/14 04:46:52;;;;;;;7.03;2.63;;;3.80;99.90;;;;;;4966837;28;20475;-71
2023/04/14 04:49:19;;;;;;;8.88;2.95;;;3.80;99.90;;;;;;4967663;28;20561;-71
2023/04/14 04:51:45;;;;;;;7.47;2.83;;;3.80;99.90;;;;;;4970478;28;20042;-71
2023/04/14 04:54:10;;;;;;;8.77;2.63;;;3.70;99.90;;;;;;4964332;28;20049;-71
2023/04/14 04:56:36;;;;;;;7.28;2.42;;;3.80;99.90;;;;;;4966575;28;20042;-71
2023/04/14 04:59:02;;;;;;;7.70;2.45;;;3.70;99.90;;;;;;4965911;28;20046;-71
2023/04/14 05:01:28;;;;;;;9.68;3.42;;;3.70;99.90;;;;;;4971957;28;20043;-71
2023/04/14 05:03:54;;;;;;;5.45;2.40;;;3.70;99.90;;;;;;4967404;28;20041;-71
2023/04/14 05:06:19;;;;;;;4.25;2.22;;;3.70;99.90;;;;;;4968267;28;20038;-71
2023/04/14 05:08:45;;;;;;;8.15;3.00;;;3.70;99.90;;;;;;4983031;28;20065;-71
2023/04/14 05:11:11;;;;;;;6.80;2.35;;;3.70;99.90;;;;;;4946304;28;20043;-71
2023/04/14 05:13:36;;;;;;;6.15;2.53;;;3.70;99.90;;;;;;4968412;28;20145;-71
2023/04/14 05:16:10;;;;;;;6.05;2.80;;;3.70;99.90;;;;;;4961660;28;20065;-71
2023/04/14 05:18:36;;;;;;;4.88;2.60;;;3.80;99.90;;;;;;4970063;28;20045;-71
2023/04/14 05:21:06;;;;;;;6.75;2.80;;;3.80;99.90;;;;;;4965557;28;20411;-71
2023/04/14 05:23:33;;;;;;;9.65;3.50;;;3.90;99.90;;;;;;4969643;28;20042;-71
2023/04/14 05:25:59;;;;;;;12.85;3.72;;;4.00;99.90;;;;;;4964693;28;20069;-71
2023/04/14 05:28:26;;;;;;;6.07;3.20;;;4.00;99.90;;;;;;4981762;28;20038;-71
2023/04/14 05:30:52;;;;;;;7.15;3.13;;;4.20;99.90;;;;;;4965206;28;20041;-71
2023/04/14 05:33:18;;;;;;;9.13;2.80;;;4.20;99.90;;;;;;4963815;28;20053;-71
2023/04/14 05:35:44;;;;;;;13.20;3.42;;;4.40;99.90;;;;;;4963015;28;20446;-71
2023/04/14 05:38:10;;;;;;;7.78;3.08;;;4.40;99.90;;;;;;4965008;28;20049;-72
2023/04/14 05:40:36;;;;;;;8.23;3.30;;;4.60;99.90;;;;;;4963770;28;20125;-71
2023/04/14 05:43:02;;;;;;;6.97;2.70;;;4.80;99.90;;;;;;4962471;28;20466;-72
2023/04/14 05:45:28;;;;;;;10.38;3.25;;;5.30;99.90;;;;;;4966852;28;20125;-71
2023/04/14 05:47:54;;;;;;;9.20;3.55;;;5.70;99.90;;;;;;4961948;28;20125;-71
2023/04/14 05:50:21;;;;;;;9.10;3.25;;;5.80;99.90;;;;;;4965608;28;20081;-71
2023/04/14 05:52:47;;;;;;;9.23;3.10;;;6.00;99.90;;;;;;4962543;28;20117;-71
2023/04/14 05:55:13;;;;;;;6.22;2.88;;;6.20;99.90;;;;;;4967212;28;20077;-71
2023/04/14 05:57:39;;;;;;;6.53;2.67;;;6.40;99.90;;;;;;4979521;28;20073;-71
2023/04/14 06:00:06;;;;;;;5.30;3.10;;;6.50;99.90;;;;;;4962328;28;20046;-71
2023/04/14 06:02:32;;;;;;;5.90;2.72;;;6.70;99.90;;;;;;4965289;28;20439;-71
2023/04/14 06:05:00;;;;;;;9.48;3.05;;;6.80;99.90;;;;;;4979685;28;20039;-71
2023/04/14 06:07:26;;;;;;;5.63;2.72;;;6.80;99.90;;;;;;4962121;28;20077;-71
2023/04/14 06:09:52;;;;;;;8.68;2.65;;;6.90;99.90;;;;;;4952415;28;20505;-72
2023/04/14 06:12:19;;;;;;;4.75;2.40;;;7.00;99.90;;;;;;4960865;28;20038;-72
2023/04/14 06:14:45;;;;;;;6.15;2.45;;;7.00;99.90;;;;;;4967616;28;20046;-71
2023/04/14 06:17:11;;;;;;;7.43;2.50;;;7.10;99.90;;;;;;4962551;28;20039;-71
2023/04/14 06:19:37;;;;;;;6.90;2.20;;;7.20;99.90;;;;;;4968641;28;20204;-71
2023/04/14 06:22:04;;;;;;;7.80;2.63;;;7.30;99.90;;;;;;4978554;28;20043;-71
2023/04/14 06:24:32;;;;;;;6.57;1.92;;;7.40;99.90;;;;;;4948702;28;20042;-71
2023/04/14 06:26:57;;;;;;;5.88;2.03;;;7.50;99.90;;;;;;4969518;28;20129;-72
2023/04/14 06:29:23;;;;;;;8.38;2.28;;;7.50;99.90;;;;;;4953913;28;20071;-71
2023/04/14 06:31:50;;;;;;;5.75;2.00;;;7.60;99.90;;;;;;4964061;28;20061;-71
2023/04/14 06:34:17;;;;;;;7.20;2.15;;;7.60;99.90;;;;;;4980916;28;20152;-71
2023/04/14 06:36:42;;;;;;;10.18;2.80;;;7.70;99.90;;;;;;4953992;28;20034;-71
2023/04/14 06:39:08;;;;;;;6.15;2.65;;;7.80;99.90;;;;;;4969293;28;20050;-71
2023/04/14 06:41:34;;;;;;;6.97;2.80;;;7.90;99.90;;;;;;4954634;28;20039;-71
2023/04/14 06:44:00;;;;;;;9.35;2.35;;;8.00;99.90;;;;;;4945487;28;20117;-72
2023/04/14 06:46:25;;;;;;;7.88;2.50;;;8.20;99.90;;;;;;4964309;28;20044;-72
2023/04/14 06:48:51;;;;;;;5.10;2.30;;;8.20;99.90;;;;;;4977362;28;20039;-72
2023/04/14 06:51:17;;;;;;;7.53;2.00;;;8.40;99.90;;;;;;4964226;28;20141;-73
2023/04/14 06:53:43;;;;;;;4.85;1.92;;;8.50;99.90;;;;;;4964166;28;20057;-72
2023/04/14 06:56:09;;;;;;;8.77;2.53;;;8.60;99.90;;;;;;4963618;28;20042;-73
2023/04/14 06:58:35;;;;;;;8.32;2.47;;;8.60;99.90;;;;;;4968839;28;20078;-72
2023/04/14 07:01:02;;;;;;;5.95;2.15;;;8.80;99.90;;;;;;4950995;28;20074;-72
2023/04/14 07:03:29;;;;;;;8.23;2.20;;;8.90;99.90;;;;;;4965518;28;20045;-72
2023/04/14 07:06:07;;;;;;;6.30;2.35;;;8.90;99.90;;;;;;4970148;28;20564;-72
2023/04/14 07:08:33;;;;;;;7.65;2.17;;;9.10;99.90;;;;;;4965826;28;20108;-72
2023/04/14 07:11:04;;;;;;;5.80;2.30;;;9.20;99.90;;;;;;4968452;28;20042;-72
2023/04/14 07:13:31;;;;;;;7.35;1.92;;;9.40;99.90;;;;;;4986314;28;20639;-72
2023/04/14 07:15:58;;;;;;;3.83;1.75;;;9.50;99.90;;;;;;4958282;28;20345;-72
2023/04/14 07:18:23;;;;;;;8.60;2.05;;;9.70;99.90;;;;;;4966867;28;20050;-72
2023/04/14 07:20:53;;;;;;;5.82;2.10;;;9.80;99.90;;;;;;4965470;28;20045;-73
2023/04/14 07:23:19;;;;;;;7.18;2.38;;;10.00;99.90;;;;;;4966240;28;20119;-73
2023/04/14 07:25:50;;;;;;;10.18;2.40;;;10.20;99.90;;;;;;4967510;28;20126;-72
2023/04/14 07:28:16;;;;;;;8.88;2.20;;;10.40;99.90;;;;;;4967236;28;20454;-72
2023/04/14 07:30:42;;;;;;;6.43;2.25;;;10.50;99.90;;;;;;4970781;28;20046;-72
2023/04/14 07:33:08;;;;;;;8.32;2.58;;;10.70;99.90;;;;;;4967845;28;20046;-73
2023/04/14 07:35:34;;;;;;;9.60;2.22;;;10.80;99.90;;;;;;4962723;28;20046;-73
2023/04/14 07:37:59;;;;;;;6.32;1.70;;;11.00;99.90;;;;;;4967675;28;20050;-73
2023/04/14 07:40:25;;;;;;;10.25;2.13;;;11.40;99.90;;;;;;4984674;28;20394;-73
2023/04/14 07:42:51;;;;;;;7.45;2.13;;;11.80;99.90;;;;;;4971771;28;20502;-73
2023/04/14 07:45:17;;;;;;;6.30;1.90;;;12.50;99.90;;;;;;4963352;28;20133;-73
2023/04/14 07:47:43;;;;;;;7.85;1.92;;;13.30;99.90;;;;;;4963898;28;20146;-73
2023/04/14 07:50:09;;;;;;;6.50;1.52;;;14.10;99.90;;;;;;4951338;28;20502;-73
2023/04/14 07:52:35;;;;;;;7.18;1.55;;;14.70;99.90;;;;;;4967710;28;20564;-72
2023/04/14 07:55:02;;;;;;;7.10;1.58;;;15.10;99.90;;;;;;4973243;28;20042;-73
2023/04/14 07:57:28;;;;;;;11.60;2.13;;;15.60;99.90;;;;;;4965657;28;20120;-73
2023/04/14 07:59:53;;;;;;;5.80;1.65;;;15.90;99.90;;;;;;4969489;28;20491;-73
2023/04/14 08:02:20;;;;;;;7.88;1.92;;;16.00;99.90;;;;;;4954377;28;20038;-73
2023/04/14 08:04:46;;;;;;;6.43;1.95;;;16.10;99.90;;;;;;4963423;28;20053;-74
2023/04/14 08:07:12;;;;;;;7.03;1.77;;;16.20;99.90;;;;;;4982654;28;20483;-74
2023/04/14 08:09:38;;;;;;;5.78;1.77;;;16.40;99.90;;;;;;4981027;28;20089;-74
2023/04/14 08:12:04;;;;;;;9.70;1.75;;;16.90;99.90;;;;;;4955375;28;20048;-75
2023/04/14 08:14:30;;;;;;;6.50;1.95;;;17.30;99.90;;;;;;4966655;28;20409;-75
2023/04/14 08:16:55;;;;;;;6.38;1.92;;;17.50;99.90;;;;;;4968683;28;20035;-75
2023/04/14 08:19:21;;;;;;;6.50;1.80;;;17.70;99.90;;;;;;4953654;28;20507;-75
2023/04/14 08:21:47;;;;;;;4.28;1.38;;;17.90;99.90;;;;;;4965086;28;20042;-75
2023/04/14 08:24:13;;;;;;;7.53;1.65;;;17.90;99.90;;;;;;4967529;28;20066;-71
2023/04/14 08:26:39;;;;;;;8.25;2.08;;;18.00;99.90;;;;;;4970567;28;20133;-71
2023/04/14 08:29:05;;;;;;;6.10;1.67;;;18.10;99.90;;;;;;4985571;28;20049;-71
2023/04/14 08:31:32;;;;;;;5.78;1.67;;;18.40;99.90;;;;;;4970010;28;20041;-71
2023/04/14 08:33:57;;;;;;;5.80;1.30;;;18.40;99.90;;;;;;4986942;28;20047;-70
2023/04/14 08:36:24;;;;;;;5.32;1.77;;;18.40;99.30;;;;;;4965547;28;20112;-71
2023/04/14 08:38:49;;;;;;;5.20;1.70;;;18.50;98.50;;;;;;4981952;28;20040;-71
2023/04/14 08:41:18;;;;;;;7.22;1.85;;;18.40;98.40;;;;;;4974375;28;20121;-71
2023/04/14 08:43:45;;;;;;;4.47;1.52;;;18.70;99.20;;;;;;4961812;28;20070;-71
2023/04/14 08:46:12;;;;;;;7.20;1.75;;;18.90;98.90;;;;;;4970102;28;20118;-75
2023/04/14 08:48:38;;;;;;;6.80;2.00;;;19.10;98.90;;;;;;4968915;28;20101;-76
2023/04/14 08:51:27;;;;;;;4.97;1.80;;;19.40;99.00;;;;;;4980392;28;20117;-75
2023/04/14 08:53:55;;;;;;;6.78;1.80;;;19.40;91.60;;;;;;4970822;28;20108;-75
2023/04/14 08:56:26;;;;;;;8.27;1.90;;;19.20;96.70;;;;;;4969337;28;20068;-75
2023/04/14 08:58:52;;;;;;;5.35;1.63;;;19.40;95.60;;;;;;4975962;28;20542;-74
2023/04/14 09:01:19;;;;;;;6.50;1.50;;;19.60;95.00;;;;;;4968758;28;20118;-74
2023/04/14 09:03:47;;;;;;;8.43;1.80;;;19.50;94.10;;;;;;4975371;28;20050;-74
2023/04/14 09:06:13;;;;;;;6.70;1.83;;;19.50;94.60;;;;;;4967952;28;20710;-74
2023/04/14 09:08:39;;;;;;;8.32;1.98;;;19.50;94.20;;;;;;4968098;28;20034;-74
2023/04/14 09:11:04;;;;;;;6.10;1.83;;;19.70;94.10;;;;;;4968036;28;20382;-74
2023/04/14 09:13:30;;;;;;;6.45;1.70;;;19.70;92.40;;;;;;4961360;28;20054;-76
2023/04/14 09:15:58;;;;;;;10.25;2.72;;;19.50;92.30;;;;;;4947469;28;20137;-76
2023/04/14 09:18:26;;;;;;;7.90;1.95;;;19.40;91.50;;;;;;4961909;28;20058;-75
2023/04/14 09:20:52;;;;;;;6.35;1.77;;;19.30;92.10;;;;;;4951755;28;20065;-76
2023/04/14 09:23:20;;;;;;;7.30;1.77;;;19.40;91.60;;;;;;4962852;28;20030;-75
2023/04/14 09:25:46;;;;;;;6.80;1.80;;;19.40;90.10;;;;;;4968365;28;20372;-75
2023/04/14 09:28:12;;;;;;;5.18;1.52;;;19.20;86.60;;;;;;4963857;28;20039;-76
2023/04/14 09:30:38;;;;;;;6.20;1.35;;;19.00;87.10;;;;;;4982982;28;20039;-76
2023/04/14 09:33:17;;;;;;;6.78;1.80;;;19.10;86.50;;;;;;4966440;28;20042;-76
2023/04/14 09:35:50;;;;;;;8.18;1.83;;;19.10;84.10;;;;;;4950807;28;20407;-77
2023/04/14 09:38:33;;;;;;;7.30;1.67;;;19.00;85.80;;;;;;4940267;29;20054;-77
2023/04/14 09:41:00;;;;;;;9.20;1.80;;;19.00;83.10;;;;;;4952486;28;20046;-76
2023/04/14 09:43:28;;;;;;;9.38;1.90;;;19.10;86.40;;;;;;4959012;28;20043;-77
2023/04/14 09:45:55;;;;;;;7.95;1.67;;;19.10;86.10;;;;;;4965164;28;20038;-77
2023/04/14 09:48:21;;;;;;;5.13;1.63;;;19.50;89.20;;;;;;4954396;28;20042;-77
2023/04/14 09:51:09;;;;;;;6.15;1.42;;;19.70;82.80;;;;;;4947848;28;20038;-76
2023/04/14 09:53:39;;;;;;;8.63;1.90;;;19.60;78.90;;;;;;4944225;28;20130;-77
2023/04/14 09:56:08;;;;;;;5.40;1.48;;;18.90;79.80;;;;;;4963706;28;20435;-76
2023/04/14 09:58:42;;;;;;;4.60;1.40;;;18.30;80.00;;;;;;4962305;28;20085;-77
2023/04/14 10:01:12;;;;;;;;;;;17.60;79.60;;;;;;4951734;28;20039;-78
2023/04/14 10:03:42;;;;;;;6.07;1.50;;;17.50;78.40;;;;;;4961401;28;19929;-78
2023/04/14 10:06:21;;;;;;;5.28;1.38;;;17.60;83.90;;;;;;4962177;28;20047;-77
2023/04/14 10:08:52;;;;;;;6.38;1.80;;;17.30;81.70;;;;;;4960981;28;20093;-78
2023/04/14 10:11:26;;;;;;;9.70;1.95;;;17.30;82.40;;;;;;4964596;28;20042;-78
2023/04/14 10:13:53;;;;;;;10.90;2.20;;;17.70;85.70;;;;;;4967660;28;20537;-77
2023/04/14 10:16:20;;;;;;;6.15;1.67;;;18.20;88.00;;;;;;4960837;28;20125;-77
2023/04/14 10:18:46;;;;;;;5.30;1.30;;;18.50;86.00;;;;;;4970342;28;20456;-77
2023/04/14 10:21:13;;;;;;;9.23;1.67;;;18.90;83.50;;;;;;4943588;28;20071;-76
2023/04/14 10:23:42;;;;;;;7.28;1.70;;;19.10;81.30;;;;;;4949461;28;20035;-77
2023/04/14 10:26:12;;;;;;;7.10;2.70;;;19.30;82.30;;;;;;4962759;28;20036;-76
2023/04/14 10:28:42;;;;;;;6.55;1.20;;;19.50;82.00;;;;;;4962296;28;20043;-77
2023/04/14 10:31:16;;;;;;;5.97;1.30;;;19.70;80.60;;;;;;4962330;28;20125;-76
2023/04/14 10:33:41;;;;;;;;;;;19.90;79.30;;;;;;4963436;28;20034;-77
2023/04/14 10:36:08;;;;;;;6.38;1.50;;;19.90;73.80;;;;;;4959718;28;19925;-76
2023/04/14 10:38:37;;;;;;;6.93;1.90;;;19.90;79.80;;;;;;4960544;28;20047;-77
2023/04/14 10:41:04;;;;;;;6.25;1.42;;;19.90;74.60;;;;;;4949947;28;20051;-77
2023/04/14 10:43:30;;;;;;;4.32;1.10;;;20.00;72.20;;;;;;4945966;28;20031;-77
2023/04/14 10:45:57;;;;;;;5.28;1.30;;;20.00;71.80;;;;;;4966013;28;20138;-76
2023/04/14 10:48:32;;;;;;;4.15;1.45;;;19.90;71.70;;;;;;4951177;28;20187;-77
2023/04/14 10:50:58;;;;;;;5.80;1.52;;;19.90;69.80;;;;;;4998458;28;20509;-77
2023/04/14 10:53:27;;;;;;;7.82;2.20;;;19.60;72.10;;;;;;4963761;28;20047;-78
2023/04/14 10:55:57;;;;;;;8.20;2.05;;;19.60;71.50;;;;;;4967005;28;20400;-78
2023/04/14 10:58:28;;;;;;;7.05;1.50;;;19.60;74.80;;;;;;4964551;28;20130;-78
2023/04/14 11:00:56;;;;;;;5.32;1.25;;;19.80;68.70;;;;;;4959833;28;20058;-78
2023/04/14 11:03:22;;;;;;;7.70;1.30;;;19.90;71.40;;;;;;4946817;28;20062;-79
2023/04/14 11:05:50;;;;;;;5.55;1.20;;;20.10;70.90;;;;;;4962280;28;20035;-77
2023/04/14 11:08:25;;;;;;;5.00;1.20;;;20.50;71.60;;;;;;4963084;28;20105;-79
2023/04/14 11:11:03;;;;;;;6.30;1.58;;;20.60;63.00;;;;;;4963471;28;20275;-79
2023/04/14 11:13:30;;;;;;;4.97;1.30;;;20.00;65.50;;;;;;4968576;28;20129;-78
2023/04/14 11:15:56;;;;;;;7.60;1.73;;;19.80;69.80;;;;;;4984823;28;20050;-79
2023/04/14 11:18:28;;;;;;;7.32;1.92;;;19.90;66.90;;;;;;4967523;28;20442;-78
2023/04/14 11:21:03;;;;;;;7.13;1.45;;;20.10;65.50;;;;;;4965606;28;20468;-78
2023/04/14 11:23:29;;;;;;;7.25;1.42;;;20.30;66.50;;;;;;4966582;28;20541;-79
2023/04/14 11:25:56;;;;;;;5.95;1.45;;;20.70;66.80;;;;;;4953714;28;20478;-79
2023/04/14 11:28:30;;;;;;;7.65;1.67;;;21.00;66.80;;;;;;4964411;28;20053;-80
2023/04/14 11:30:58;;;;;;;6.00;1.50;;;21.10;65.20;;;;;;4950018;28;20042;-78
2023/04/14 11:33:27;;;;;;;6.40;1.42;;;21.20;66.20;;;;;;4954907;28;20043;-78
2023/04/14 11:35:53;;;;;;;4.13;1.17;;;21.20;62.30;;;;;;4956722;28;20042;-79
2023/04/14 11:38:19;;;;;;;5.07;1.33;;;21.20;61.60;;;;;;4960365;28;20060;-79
2023/04/14 11:40:49;;;;;;;6.03;1.60;;;21.30;62.50;;;;;;4967287;28;20395;-80
2023/04/14 11:43:15;;;;;;;6.03;1.20;;;21.50;62.00;;;;;;4958057;28;20386;-79
2023/04/14 11:45:42;;;;;;;4.72;1.40;;;21.70;61.60;;;;;;4972131;28;20050;-72
2023/04/14 11:48:11;;;;;;;5.78;1.60;;;21.80;61.60;;;;;;4953563;28;20194;-72
2023/04/14 11:50:41;;;;;;;5.80;1.27;;;22.00;60.90;;;;;;4968770;28;20047;-72
2023/04/14 11:53:16;;;;;;;6.63;1.90;;;22.30;61.70;;;;;;4960898;28;20117;-72
2023/04/14 11:55:43;;;;;;;5.90;1.50;;;22.30;57.50;;;;;;4970950;28;20038;-73
2023/04/14 11:58:11;;;;;;;6.97;1.35;;;21.80;57.40;;;;;;4971238;28;20065;-72
2023/04/14 12:00:37;;;;;;;4.57;1.10;;;21.40;57.50;;;;;;4967371;28;20371;-72
2023/04/14 12:03:04;;;;;;;6.03;1.38;;;21.00;57.80;;;;;;4963169;28;20038;-74
2023/04/14 12:05:32;;;;;;;5.55;1.35;;;21.10;57.80;;;;;;4969868;28;20149;-72
2023/04/14 12:08:07;;;;;;;3.80;1.15;;;21.20;55.90;;;;;;4966960;28;20089;-73
2023/04/14 12:10:37;;;;;;;5.82;1.50;;;20.50;55.70;;;;;;4977583;28;20046;-71
2023/04/14 12:13:03;;;;;;;7.22;1.75;;;19.70;58.00;;;;;;4974010;28;20038;-71
2023/04/14 12:15:35;;;;;;;4.63;1.38;;;19.50;61.20;;;;;;4969698;28;20160;-70
2023/04/14 12:18:03;;;;;;;4.85;1.45;;;19.60;59.30;;;;;;4982768;28;20572;-72
2023/04/14 12:20:46;;;;;;;5.30;1.38;;;19.80;61.20;;;;;;4980049;28;20039;-72
2023/04/14 12:23:14;;;;;;;8.38;1.77;;;19.60;58.90;;;;;;4962716;28;20072;-72
2023/04/14 12:25:40;;;;;;;6.10;1.58;;;19.90;60.50;;;;;;4985664;28;20117;-73
2023/04/14 12:28:05;;;;;;;5.30;1.15;;;20.50;60.50;;;;;;4980438;28;20109;-72
2023/04/14 12:30:32;;;;;;;5.47;1.30;;;21.10;59.90;;;;;;4967249;28;20050;-72
2023/04/14 12:32:58;;;;;;;5.07;1.20;;;21.70;59.80;;;;;;4983642;28;20035;-72
2023/04/14 12:35:24;;;;;;;4.85;1.55;;;22.40;59.60;;;;;;4966379;28;20042;-72
2023/04/14 12:37:50;;;;;;;6.30;1.58;;;22.90;56.80;;;;;;4985391;28;20042;-72
2023/04/14 12:40:17;;;;;;;4.43;1.33;;;23.00;54.60;;;;;;4966693;28;20050;-72
2023/04/14 12:42:48;;;;;;;7.05;1.38;;;23.40;54.70;;;;;;4969326;28;20118;-73
2023/04/14 12:45:15;;;;;;;3.97;1.10;;;23.60;53.90;;;;;;4972754;28;20035;-73
2023/04/14 12:47:53;;;;;;;4.72;1.10;;;23.80;53.70;;;;;;4966418;28;20077;-73
2023/04/14 12:50:27;;;;;;;5.75;1.23;;;23.90;52.10;;;;;;4968927;28;20044;-73
2023/04/14 12:52:58;;;;;;;4.03;1.27;;;24.00;50.30;;;;;;4984108;28;20566;-74
2023/04/14 12:55:30;;;;;;;6.72;2.20;;;24.00;49.80;;;;;;4972147;28;20051;-76
2023/04/14 12:57:59;;;;;;;6.07;1.67;;;23.90;48.70;;;;;;4969239;28;20042;-71